Inicio METAR Ruta Wind Satelite

Informe Meteorológico

Fecha: 2020/09/19 19:35:22 Local
2020.09.20 00:35 UTC


Estado: VENCIDO
Operación:VFR
Ipiales / San Luis, Colombia (SKIP) 00-49N 077-38W
2020.09.19 1900 UTC
Wind: Calm:0
Visibility: greater than 7 mile(s):0
Sky conditions: overcast
Temperature: 55 F (13 C)
Dew Point: 48 F (9 C)
Relative Humidity: 76%
Pressure (altimeter): 30.41 in. Hg (1029 hPa)
ob: SKIP 191900Z 00000KT 9999 SCT018 OVC080 13/09 A3041
cycle: 19

SKIP 191800Z 00000KT 9999 SCT016 OVC080 13/10 A3044
SKIP 191700Z 06005KT 9999 BKN016 SCT080 11/10 A3047 REDZ RMK VCSH/E
SKIP 191600Z 09005KT 8000 DZ FEW016 OVC080 11/10 A3048
SKIP 191500Z 00000KT 9999 -DZ FEW016 OVC080 10/09 A3048
SKIP 191400Z 00000KT 9999 VCSH FEW018 OVC080 09/08 A3047 RMK VCSH/NE